sensor_id;sensor_type;location;lat;lon;timestamp;P1;durP1;ratioP1;P2;durP2;ratioP2
66886;SDS011;67239;51.680;5.976;2023-05-10T00:00:46;53.05;;;25.70;;
66886;SDS011;67239;51.680;5.976;2023-05-10T00:03:13;54.65;;;25.90;;
66886;SDS011;67239;51.680;5.976;2023-05-10T00:05:40;59.60;;;25.63;;
66886;SDS011;67239;51.680;5.976;2023-05-10T00:08:07;50.35;;;24.50;;
66886;SDS011;67239;51.680;5.976;2023-05-10T00:10:34;56.03;;;24.50;;
66886;SDS011;67239;51.680;5.976;2023-05-10T00:13:01;58.53;;;24.88;;
66886;SDS011;67239;51.680;5.976;2023-05-10T00:15:28;57.85;;;25.40;;
66886;SDS011;67239;51.680;5.976;2023-05-10T00:17:57;54.70;;;24.33;;
66886;SDS011;67239;51.680;5.976;2023-05-10T00:20:24;56.45;;;24.45;;
66886;SDS011;67239;51.680;5.976;2023-05-10T00:22:51;52.38;;;23.10;;
66886;SDS011;67239;51.680;5.976;2023-05-10T00:25:18;55.78;;;23.85;;
66886;SDS011;67239;51.680;5.976;2023-05-10T00:27:45;59.78;;;23.58;;
66886;SDS011;67239;51.680;5.976;2023-05-10T00:30:12;51.67;;;23.27;;
66886;SDS011;67239;51.680;5.976;2023-05-10T00:32:40;52.00;;;23.20;;
66886;SDS011;67239;51.680;5.976;2023-05-10T00:35:07;50.08;;;22.70;;
66886;SDS011;67239;51.680;5.976;2023-05-10T00:37:34;54.97;;;23.45;;
66886;SDS011;67239;51.680;5.976;2023-05-10T00:40:02;55.40;;;22.77;;
66886;SDS011;67239;51.680;5.976;2023-05-10T00:42:29;50.03;;;22.40;;
66886;SDS011;67239;51.680;5.976;2023-05-10T00:44:56;53.80;;;23.15;;
66886;SDS011;67239;51.680;5.976;2023-05-10T00:47:24;49.67;;;22.90;;
66886;SDS011;67239;51.680;5.976;2023-05-10T00:49:51;46.03;;;20.85;;
66886;SDS011;67239;51.680;5.976;2023-05-10T00:52:19;44.03;;;20.90;;
66886;SDS011;67239;51.680;5.976;2023-05-10T00:54:46;44.00;;;20.88;;
66886;SDS011;67239;51.680;5.976;2023-05-10T00:57:14;47.55;;;21.25;;
66886;SDS011;67239;51.680;5.976;2023-05-10T00:59:41;41.40;;;20.00;;
66886;SDS011;67239;51.680;5.976;2023-05-10T01:02:08;42.65;;;19.77;;
66886;SDS011;67239;51.680;5.976;2023-05-10T01:04:35;38.40;;;19.20;;
66886;SDS011;67239;51.680;5.976;2023-05-10T01:07:04;41.70;;;18.77;;
66886;SDS011;67239;51.680;5.976;2023-05-10T01:09:31;38.88;;;19.00;;
66886;SDS011;67239;51.680;5.976;2023-05-10T01:11:59;38.97;;;19.17;;
66886;SDS011;67239;51.680;5.976;2023-05-10T01:14:28;41.22;;;20.15;;
66886;SDS011;67239;51.680;5.976;2023-05-10T01:16:56;45.45;;;19.42;;
66886;SDS011;67239;51.680;5.976;2023-05-10T01:19:25;44.17;;;20.10;;
66886;SDS011;67239;51.680;5.976;2023-05-10T01:22:19;41.88;;;19.55;;
66886;SDS011;67239;51.680;5.976;2023-05-10T01:28:08;44.83;;;20.48;;
66886;SDS011;67239;51.680;5.976;2023-05-10T01:33:47;43.95;;;20.63;;
66886;SDS011;67239;51.680;5.976;2023-05-10T01:36:38;48.00;;;22.67;;
66886;SDS011;67239;51.680;5.976;2023-05-10T01:39:23;48.08;;;21.73;;
66886;SDS011;67239;51.680;5.976;2023-05-10T01:42:10;43.47;;;20.92;;
66886;SDS011;67239;51.680;5.976;2023-05-10T01:45:08;41.53;;;20.85;;
66886;SDS011;67239;51.680;5.976;2023-05-10T01:47:43;45.00;;;19.92;;
66886;SDS011;67239;51.680;5.976;2023-05-10T01:50:22;39.72;;;19.65;;
66886;SDS011;67239;51.680;5.976;2023-05-10T01:52:56;45.63;;;20.55;;
66886;SDS011;67239;51.680;5.976;2023-05-10T01:55:30;44.63;;;19.77;;
66886;SDS011;67239;51.680;5.976;2023-05-10T01:58:07;46.92;;;21.38;;
66886;SDS011;67239;51.680;5.976;2023-05-10T02:00:40;40.50;;;19.65;;
66886;SDS011;67239;51.680;5.976;2023-05-10T02:03:12;46.35;;;21.00;;
66886;SDS011;67239;51.680;5.976;2023-05-10T02:05:43;44.13;;;22.08;;
66886;SDS011;67239;51.680;5.976;2023-05-10T02:08:12;48.47;;;22.52;;
66886;SDS011;67239;51.680;5.976;2023-05-10T02:10:44;44.53;;;20.90;;
66886;SDS011;67239;51.680;5.976;2023-05-10T02:13:14;48.40;;;20.77;;
66886;SDS011;67239;51.680;5.976;2023-05-10T02:15:46;50.30;;;22.90;;
66886;SDS011;67239;51.680;5.976;2023-05-10T02:18:16;52.05;;;23.02;;
66886;SDS011;67239;51.680;5.976;2023-05-10T02:20:45;53.30;;;24.20;;
66886;SDS011;67239;51.680;5.976;2023-05-10T02:23:15;51.10;;;23.25;;
66886;SDS011;67239;51.680;5.976;2023-05-10T02:25:44;57.15;;;25.05;;
66886;SDS011;67239;51.680;5.976;2023-05-10T02:28:14;55.22;;;25.73;;
66886;SDS011;67239;51.680;5.976;2023-05-10T02:30:44;58.45;;;25.23;;
66886;SDS011;67239;51.680;5.976;2023-05-10T02:33:14;57.30;;;24.98;;
66886;SDS011;67239;51.680;5.976;2023-05-10T02:35:41;52.22;;;24.17;;
66886;SDS011;67239;51.680;5.976;2023-05-10T02:38:09;51.17;;;25.58;;
66886;SDS011;67239;51.680;5.976;2023-05-10T02:40:38;60.60;;;26.58;;
66886;SDS011;67239;51.680;5.976;2023-05-10T02:43:09;64.70;;;27.00;;
66886;SDS011;67239;51.680;5.976;2023-05-10T02:45:41;56.15;;;25.63;;
66886;SDS011;67239;51.680;5.976;2023-05-10T02:48:10;60.72;;;27.52;;
66886;SDS011;67239;51.680;5.976;2023-05-10T02:50:37;62.22;;;27.33;;
66886;SDS011;67239;51.680;5.976;2023-05-10T02:53:15;60.13;;;27.88;;
66886;SDS011;67239;51.680;5.976;2023-05-10T02:55:50;62.25;;;27.95;;
66886;SDS011;67239;51.680;5.976;2023-05-10T02:58:23;81.22;;;31.10;;
66886;SDS011;67239;51.680;5.976;2023-05-10T03:00:50;70.82;;;30.13;;
66886;SDS011;67239;51.680;5.976;2023-05-10T03:03:18;75.53;;;30.00;;
66886;SDS011;67239;51.680;5.976;2023-05-10T03:05:48;76.20;;;31.15;;
66886;SDS011;67239;51.680;5.976;2023-05-10T03:08:15;78.00;;;30.63;;
66886;SDS011;67239;51.680;5.976;2023-05-10T03:16:56;84.82;;;32.17;;
66886;SDS011;67239;51.680;5.976;2023-05-10T03:19:55;75.72;;;32.58;;
66886;SDS011;67239;51.680;5.976;2023-05-10T03:22:26;82.80;;;34.22;;
66886;SDS011;67239;51.680;5.976;2023-05-10T03:25:05;88.82;;;33.60;;
66886;SDS011;67239;51.680;5.976;2023-05-10T03:27:39;84.03;;;33.05;;
66886;SDS011;67239;51.680;5.976;2023-05-10T03:30:10;88.75;;;34.08;;
66886;SDS011;67239;51.680;5.976;2023-05-10T03:32:40;81.80;;;32.55;;
66886;SDS011;67239;51.680;5.976;2023-05-10T03:35:11;90.18;;;34.28;;
66886;SDS011;67239;51.680;5.976;2023-05-10T03:37:40;92.05;;;34.22;;
66886;SDS011;67239;51.680;5.976;2023-05-10T03:40:07;98.97;;;34.53;;
66886;SDS011;67239;51.680;5.976;2023-05-10T03:42:37;92.72;;;35.00;;
66886;SDS011;67239;51.680;5.976;2023-05-10T03:45:05;89.78;;;35.13;;
66886;SDS011;67239;51.680;5.976;2023-05-10T03:47:33;90.03;;;36.22;;
66886;SDS011;67239;51.680;5.976;2023-05-10T03:50:00;94.70;;;34.45;;
66886;SDS011;67239;51.680;5.976;2023-05-10T03:52:29;101.18;;;36.00;;
66886;SDS011;67239;51.680;5.976;2023-05-10T03:54:56;95.55;;;35.47;;
66886;SDS011;67239;51.680;5.976;2023-05-10T03:57:23;93.20;;;35.30;;
66886;SDS011;67239;51.680;5.976;2023-05-10T03:59:51;97.70;;;35.70;;
66886;SDS011;67239;51.680;5.976;2023-05-10T04:02:17;96.63;;;35.90;;
66886;SDS011;67239;51.680;5.976;2023-05-10T04:04:45;94.53;;;35.65;;
66886;SDS011;67239;51.680;5.976;2023-05-10T04:07:12;105.25;;;36.35;;
66886;SDS011;67239;51.680;5.976;2023-05-10T04:09:39;100.38;;;36.88;;
66886;SDS011;67239;51.680;5.976;2023-05-10T04:12:06;97.95;;;37.35;;
66886;SDS011;67239;51.680;5.976;2023-05-10T04:14:36;92.57;;;35.72;;
66886;SDS011;67239;51.680;5.976;2023-05-10T04:17:03;93.68;;;36.30;;
66886;SDS011;67239;51.680;5.976;2023-05-10T04:19:31;98.60;;;37.50;;
66886;SDS011;67239;51.680;5.976;2023-05-10T04:21:58;100.40;;;36.78;;
66886;SDS011;67239;51.680;5.976;2023-05-10T04:24:25;108.05;;;37.42;;
66886;SDS011;67239;51.680;5.976;2023-05-10T04:26:53;107.25;;;37.45;;
66886;SDS011;67239;51.680;5.976;2023-05-10T04:29:23;98.00;;;37.22;;
66886;SDS011;67239;51.680;5.976;2023-05-10T04:31:50;103.88;;;38.22;;
66886;SDS011;67239;51.680;5.976;2023-05-10T04:34:17;107.65;;;38.25;;
66886;SDS011;67239;51.680;5.976;2023-05-10T04:36:48;104.82;;;37.67;;
66886;SDS011;67239;51.680;5.976;2023-05-10T04:39:18;115.63;;;39.20;;
66886;SDS011;67239;51.680;5.976;2023-05-10T04:41:48;109.63;;;38.17;;
66886;SDS011;67239;51.680;5.976;2023-05-10T04:44:19;110.22;;;37.85;;
66886;SDS011;67239;51.680;5.976;2023-05-10T04:46:46;108.05;;;38.47;;
66886;SDS011;67239;51.680;5.976;2023-05-10T04:49:14;105.90;;;38.30;;
66886;SDS011;67239;51.680;5.976;2023-05-10T04:51:41;112.60;;;41.15;;
66886;SDS011;67239;51.680;5.976;2023-05-10T04:54:08;114.32;;;38.83;;
66886;SDS011;67239;51.680;5.976;2023-05-10T04:56:35;122.00;;;39.78;;
66886;SDS011;67239;51.680;5.976;2023-05-10T04:59:02;116.75;;;39.70;;
66886;SDS011;67239;51.680;5.976;2023-05-10T05:01:29;121.00;;;39.88;;
66886;SDS011;67239;51.680;5.976;2023-05-10T05:03:56;101.68;;;37.40;;
66886;SDS011;67239;51.680;5.976;2023-05-10T05:06:23;105.65;;;38.42;;
66886;SDS011;67239;51.680;5.976;2023-05-10T05:08:51;95.00;;;36.78;;
66886;SDS011;67239;51.680;5.976;2023-05-10T05:11:18;88.57;;;36.45;;
66886;SDS011;67239;51.680;5.976;2023-05-10T05:13:45;80.78;;;35.85;;
66886;SDS011;67239;51.680;5.976;2023-05-10T05:16:13;103.88;;;38.20;;
66886;SDS011;67239;51.680;5.976;2023-05-10T05:18:40;97.40;;;34.90;;
66886;SDS011;67239;51.680;5.976;2023-05-10T05:21:16;77.90;;;34.22;;
66886;SDS011;67239;51.680;5.976;2023-05-10T05:23:46;79.60;;;33.58;;
66886;SDS011;67239;51.680;5.976;2023-05-10T05:26:13;86.10;;;34.38;;
66886;SDS011;67239;51.680;5.976;2023-05-10T05:28:41;82.00;;;34.55;;
66886;SDS011;67239;51.680;5.976;2023-05-10T05:31:08;86.28;;;34.53;;
66886;SDS011;67239;51.680;5.976;2023-05-10T05:33:36;78.97;;;32.63;;
66886;SDS011;67239;51.680;5.976;2023-05-10T05:36:03;81.65;;;33.90;;
66886;SDS011;67239;51.680;5.976;2023-05-10T05:38:32;76.45;;;30.90;;
66886;SDS011;67239;51.680;5.976;2023-05-10T05:40:59;70.20;;;31.33;;
66886;SDS011;67239;51.680;5.976;2023-05-10T05:43:26;66.68;;;30.55;;
66886;SDS011;67239;51.680;5.976;2023-05-10T05:45:53;62.50;;;29.15;;
66886;SDS011;67239;51.680;5.976;2023-05-10T05:48:21;62.50;;;29.23;;
66886;SDS011;67239;51.680;5.976;2023-05-10T05:50:48;57.58;;;28.42;;
66886;SDS011;67239;51.680;5.976;2023-05-10T05:53:15;53.05;;;25.65;;
66886;SDS011;67239;51.680;5.976;2023-05-10T05:55:52;51.25;;;24.33;;
66886;SDS011;67239;51.680;5.976;2023-05-10T05:58:24;58.45;;;26.58;;
66886;SDS011;67239;51.680;5.976;2023-05-10T06:00:52;55.80;;;25.67;;
66886;SDS011;67239;51.680;5.976;2023-05-10T06:03:19;57.75;;;28.30;;
66886;SDS011;67239;51.680;5.976;2023-05-10T06:05:47;64.15;;;28.80;;
66886;SDS011;67239;51.680;5.976;2023-05-10T06:08:14;58.08;;;26.70;;
66886;SDS011;67239;51.680;5.976;2023-05-10T06:10:42;59.20;;;26.70;;
66886;SDS011;67239;51.680;5.976;2023-05-10T06:13:09;61.00;;;26.98;;
66886;SDS011;67239;51.680;5.976;2023-05-10T06:15:36;53.83;;;25.40;;
66886;SDS011;67239;51.680;5.976;2023-05-10T06:18:03;60.13;;;26.63;;
66886;SDS011;67239;51.680;5.976;2023-05-10T06:20:31;59.40;;;26.77;;
66886;SDS011;67239;51.680;5.976;2023-05-10T06:22:58;61.63;;;27.00;;
66886;SDS011;67239;51.680;5.976;2023-05-10T06:25:25;63.58;;;26.80;;
66886;SDS011;67239;51.680;5.976;2023-05-10T06:27:52;60.17;;;26.63;;
66886;SDS011;67239;51.680;5.976;2023-05-10T06:30:26;53.72;;;25.77;;
66886;SDS011;67239;51.680;5.976;2023-05-10T06:32:54;63.33;;;27.02;;
66886;SDS011;67239;51.680;5.976;2023-05-10T06:35:22;60.22;;;27.98;;
66886;SDS011;67239;51.680;5.976;2023-05-10T06:37:49;60.47;;;27.75;;
66886;SDS011;67239;51.680;5.976;2023-05-10T06:40:17;56.95;;;27.38;;
66886;SDS011;67239;51.680;5.976;2023-05-10T06:42:45;61.83;;;27.00;;
66886;SDS011;67239;51.680;5.976;2023-05-10T06:45:14;59.78;;;28.00;;
66886;SDS011;67239;51.680;5.976;2023-05-10T06:47:42;58.30;;;27.50;;
66886;SDS011;67239;51.680;5.976;2023-05-10T06:50:09;52.58;;;26.45;;
66886;SDS011;67239;51.680;5.976;2023-05-10T06:52:38;47.97;;;25.48;;
66886;SDS011;67239;51.680;5.976;2023-05-10T06:55:05;53.42;;;27.15;;
66886;SDS011;67239;51.680;5.976;2023-05-10T06:57:33;54.33;;;26.58;;
66886;SDS011;67239;51.680;5.976;2023-05-10T07:00:01;55.38;;;26.20;;
66886;SDS011;67239;51.680;5.976;2023-05-10T07:02:30;51.42;;;26.38;;
66886;SDS011;67239;51.680;5.976;2023-05-10T07:04:57;53.95;;;26.33;;
66886;SDS011;67239;51.680;5.976;2023-05-10T07:07:40;50.40;;;25.58;;
66886;SDS011;67239;51.680;5.976;2023-05-10T07:10:07;50.42;;;26.42;;
66886;SDS011;67239;51.680;5.976;2023-05-10T07:12:35;56.28;;;26.75;;
66886;SDS011;67239;51.680;5.976;2023-05-10T07:15:02;47.47;;;26.10;;
66886;SDS011;67239;51.680;5.976;2023-05-10T07:17:30;55.35;;;27.00;;
66886;SDS011;67239;51.680;5.976;2023-05-10T07:19:58;50.10;;;25.15;;
66886;SDS011;67239;51.680;5.976;2023-05-10T07:22:25;49.42;;;25.63;;
66886;SDS011;67239;51.680;5.976;2023-05-10T07:24:52;49.10;;;25.02;;
66886;SDS011;67239;51.680;5.976;2023-05-10T07:27:19;47.38;;;25.17;;
66886;SDS011;67239;51.680;5.976;2023-05-10T07:29:46;50.05;;;25.58;;
66886;SDS011;67239;51.680;5.976;2023-05-10T07:32:13;44.92;;;23.60;;
66886;SDS011;67239;51.680;5.976;2023-05-10T07:34:40;47.53;;;23.42;;
66886;SDS011;67239;51.680;5.976;2023-05-10T07:37:07;50.47;;;24.45;;
66886;SDS011;67239;51.680;5.976;2023-05-10T07:39:35;49.63;;;25.95;;
66886;SDS011;67239;51.680;5.976;2023-05-10T07:42:02;41.33;;;22.35;;
66886;SDS011;67239;51.680;5.976;2023-05-10T07:44:29;36.20;;;20.83;;
66886;SDS011;67239;51.680;5.976;2023-05-10T07:46:56;37.03;;;20.80;;
66886;SDS011;67239;51.680;5.976;2023-05-10T07:49:23;39.85;;;22.58;;
66886;SDS011;67239;51.680;5.976;2023-05-10T07:51:50;40.67;;;21.73;;
66886;SDS011;67239;51.680;5.976;2023-05-10T07:54:17;36.53;;;21.00;;
66886;SDS011;67239;51.680;5.976;2023-05-10T07:56:45;43.75;;;21.20;;
66886;SDS011;67239;51.680;5.976;2023-05-10T07:59:17;43.90;;;21.85;;
66886;SDS011;67239;51.680;5.976;2023-05-10T08:01:44;38.30;;;20.88;;
66886;SDS011;67239;51.680;5.976;2023-05-10T08:04:11;41.75;;;22.95;;
66886;SDS011;67239;51.680;5.976;2023-05-10T08:06:39;39.92;;;21.60;;
66886;SDS011;67239;51.680;5.976;2023-05-10T08:09:07;36.65;;;21.40;;
66886;SDS011;67239;51.680;5.976;2023-05-10T08:11:35;36.00;;;20.70;;
66886;SDS011;67239;51.680;5.976;2023-05-10T08:14:02;40.15;;;21.30;;
66886;SDS011;67239;51.680;5.976;2023-05-10T08:16:29;38.17;;;22.20;;
66886;SDS011;67239;51.680;5.976;2023-05-10T08:18:56;45.35;;;22.65;;
66886;SDS011;67239;51.680;5.976;2023-05-10T08:21:23;39.33;;;21.80;;
66886;SDS011;67239;51.680;5.976;2023-05-10T08:23:50;46.67;;;22.55;;
66886;SDS011;67239;51.680;5.976;2023-05-10T08:26:17;39.00;;;22.40;;
66886;SDS011;67239;51.680;5.976;2023-05-10T08:28:44;39.92;;;21.45;;
66886;SDS011;67239;51.680;5.976;2023-05-10T08:31:11;45.67;;;23.40;;
66886;SDS011;67239;51.680;5.976;2023-05-10T08:33:38;43.58;;;23.48;;
66886;SDS011;67239;51.680;5.976;2023-05-10T08:36:08;45.33;;;23.25;;
66886;SDS011;67239;51.680;5.976;2023-05-10T08:38:36;47.38;;;24.38;;
66886;SDS011;67239;51.680;5.976;2023-05-10T08:41:04;46.63;;;23.60;;
66886;SDS011;67239;51.680;5.976;2023-05-10T08:43:32;47.20;;;25.00;;
66886;SDS011;67239;51.680;5.976;2023-05-10T08:46:02;46.20;;;25.17;;
66886;SDS011;67239;51.680;5.976;2023-05-10T08:48:34;44.55;;;23.60;;
66886;SDS011;67239;51.680;5.976;2023-05-10T08:51:02;44.95;;;25.55;;
66886;SDS011;67239;51.680;5.976;2023-05-10T08:53:30;44.92;;;25.20;;
66886;SDS011;67239;51.680;5.976;2023-05-10T08:56:02;48.45;;;26.05;;
66886;SDS011;67239;51.680;5.976;2023-05-10T08:58:30;44.75;;;24.98;;
66886;SDS011;67239;51.680;5.976;2023-05-10T09:00:58;47.60;;;24.85;;
66886;SDS011;67239;51.680;5.976;2023-05-10T09:03:27;38.80;;;24.02;;
66886;SDS011;67239;51.680;5.976;2023-05-10T09:05:54;34.85;;;20.48;;
66886;SDS011;67239;51.680;5.976;2023-05-10T09:08:24;33.35;;;20.48;;
66886;SDS011;67239;51.680;5.976;2023-05-10T09:10:53;32.92;;;20.48;;
66886;SDS011;67239;51.680;5.976;2023-05-10T09:13:22;31.17;;;19.00;;
66886;SDS011;67239;51.680;5.976;2023-05-10T09:15:50;29.33;;;18.63;;
66886;SDS011;67239;51.680;5.976;2023-05-10T09:18:19;26.13;;;17.02;;
66886;SDS011;67239;51.680;5.976;2023-05-10T09:20:46;29.35;;;17.20;;
66886;SDS011;67239;51.680;5.976;2023-05-10T09:23:13;29.08;;;16.60;;
66886;SDS011;67239;51.680;5.976;2023-05-10T09:25:43;26.80;;;16.05;;
66886;SDS011;67239;51.680;5.976;2023-05-10T09:28:10;24.95;;;15.98;;
66886;SDS011;67239;51.680;5.976;2023-05-10T09:30:38;34.30;;;17.55;;
66886;SDS011;67239;51.680;5.976;2023-05-10T09:33:05;28.90;;;19.08;;
66886;SDS011;67239;51.680;5.976;2023-05-10T09:35:33;30.00;;;18.58;;
66886;SDS011;67239;51.680;5.976;2023-05-10T09:38:02;26.88;;;18.13;;
66886;SDS011;67239;51.680;5.976;2023-05-10T09:40:31;26.52;;;17.08;;
66886;SDS011;67239;51.680;5.976;2023-05-10T09:43:03;27.38;;;17.63;;
66886;SDS011;67239;51.680;5.976;2023-05-10T09:45:34;28.95;;;18.38;;
66886;SDS011;67239;51.680;5.976;2023-05-10T09:48:04;28.13;;;18.80;;
66886;SDS011;67239;51.680;5.976;2023-05-10T09:50:32;34.47;;;20.65;;
66886;SDS011;67239;51.680;5.976;2023-05-10T09:53:01;32.17;;;19.90;;
66886;SDS011;67239;51.680;5.976;2023-05-10T09:55:43;30.75;;;19.05;;
66886;SDS011;67239;51.680;5.976;2023-05-10T09:58:12;32.50;;;20.33;;
66886;SDS011;67239;51.680;5.976;2023-05-10T10:00:45;31.23;;;19.38;;
66886;SDS011;67239;51.680;5.976;2023-05-10T10:03:23;37.40;;;20.00;;
66886;SDS011;67239;51.680;5.976;2023-05-10T10:05:50;29.60;;;18.65;;
66886;SDS011;67239;51.680;5.976;2023-05-10T10:08:19;32.53;;;20.33;;
66886;SDS011;67239;51.680;5.976;2023-05-10T10:10:47;28.85;;;19.02;;
66886;SDS011;67239;51.680;5.976;2023-05-10T10:13:18;28.63;;;18.85;;
66886;SDS011;67239;51.680;5.976;2023-05-10T10:15:46;27.17;;;18.15;;
66886;SDS011;67239;51.680;5.976;2023-05-10T10:18:17;29.15;;;18.98;;
66886;SDS011;67239;51.680;5.976;2023-05-10T10:20:50;24.55;;;17.27;;
66886;SDS011;67239;51.680;5.976;2023-05-10T10:23:17;26.00;;;18.20;;
66886;SDS011;67239;51.680;5.976;2023-05-10T10:25:44;31.83;;;18.73;;
66886;SDS011;67239;51.680;5.976;2023-05-10T10:28:17;28.50;;;19.05;;
66886;SDS011;67239;51.680;5.976;2023-05-10T10:31:40;30.50;;;18.10;;
66886;SDS011;67239;51.680;5.976;2023-05-10T10:34:08;22.98;;;15.93;;
66886;SDS011;67239;51.680;5.976;2023-05-10T10:36:40;22.75;;;15.32;;
66886;SDS011;67239;51.680;5.976;2023-05-10T10:39:11;25.58;;;16.45;;
66886;SDS011;67239;51.680;5.976;2023-05-10T10:41:40;21.85;;;15.10;;
66886;SDS011;67239;51.680;5.976;2023-05-10T10:52:39;20.92;;;13.07;;
66886;SDS011;67239;51.680;5.976;2023-05-10T10:55:14;22.02;;;13.52;;
66886;SDS011;67239;51.680;5.976;2023-05-10T10:57:47;20.67;;;13.60;;
66886;SDS011;67239;51.680;5.976;2023-05-10T11:03:08;21.02;;;14.57;;
66886;SDS011;67239;51.680;5.976;2023-05-10T11:11:13;21.90;;;15.57;;
66886;SDS011;67239;51.680;5.976;2023-05-10T11:13:45;24.80;;;16.05;;
66886;SDS011;67239;51.680;5.976;2023-05-10T11:16:21;20.30;;;14.95;;
66886;SDS011;67239;51.680;5.976;2023-05-10T11:18:56;20.35;;;14.80;;
66886;SDS011;67239;51.680;5.976;2023-05-10T11:21:29;23.23;;;15.68;;
66886;SDS011;67239;51.680;5.976;2023-05-10T11:23:58;19.33;;;14.50;;
66886;SDS011;67239;51.680;5.976;2023-05-10T11:26:31;21.52;;;15.23;;
66886;SDS011;67239;51.680;5.976;2023-05-10T11:29:01;21.83;;;15.57;;
66886;SDS011;67239;51.680;5.976;2023-05-10T11:31:29;24.50;;;16.25;;
66886;SDS011;67239;51.680;5.976;2023-05-10T11:33:57;22.35;;;17.20;;
66886;SDS011;67239;51.680;5.976;2023-05-10T11:36:28;19.42;;;14.15;;
66886;SDS011;67239;51.680;5.976;2023-05-10T11:39:00;18.23;;;13.98;;
66886;SDS011;67239;51.680;5.976;2023-05-10T11:41:28;20.33;;;14.90;;
66886;SDS011;67239;51.680;5.976;2023-05-10T11:43:57;22.75;;;15.23;;
66886;SDS011;67239;51.680;5.976;2023-05-10T11:46:25;23.27;;;15.98;;
66886;SDS011;67239;51.680;5.976;2023-05-10T11:49:01;19.90;;;15.27;;
66886;SDS011;67239;51.680;5.976;2023-05-10T11:51:32;20.85;;;13.60;;
66886;SDS011;67239;51.680;5.976;2023-05-10T11:54:06;17.73;;;12.93;;
66886;SDS011;67239;51.680;5.976;2023-05-10T11:56:36;26.67;;;14.57;;
66886;SDS011;67239;51.680;5.976;2023-05-10T11:59:05;24.95;;;12.18;;
66886;SDS011;67239;51.680;5.976;2023-05-10T12:01:33;24.25;;;11.00;;
66886;SDS011;67239;51.680;5.976;2023-05-10T12:04:01;23.70;;;10.82;;
66886;SDS011;67239;51.680;5.976;2023-05-10T12:06:30;19.42;;;8.80;;
66886;SDS011;67239;51.680;5.976;2023-05-10T12:09:06;26.85;;;10.85;;
66886;SDS011;67239;51.680;5.976;2023-05-10T12:11:38;16.60;;;10.63;;
66886;SDS011;67239;51.680;5.976;2023-05-10T12:14:10;14.35;;;10.23;;
66886;SDS011;67239;51.680;5.976;2023-05-10T12:16:37;16.30;;;10.07;;
66886;SDS011;67239;51.680;5.976;2023-05-10T12:19:04;25.10;;;11.10;;
66886;SDS011;67239;51.680;5.976;2023-05-10T12:21:32;35.03;;;11.60;;
66886;SDS011;67239;51.680;5.976;2023-05-10T12:24:01;20.45;;;10.63;;
66886;SDS011;67239;51.680;5.976;2023-05-10T12:26:30;28.70;;;10.63;;
66886;SDS011;67239;51.680;5.976;2023-05-10T12:29:11;14.77;;;10.20;;
66886;SDS011;67239;51.680;5.976;2023-05-10T12:31:53;18.42;;;10.18;;
66886;SDS011;67239;51.680;5.976;2023-05-10T12:36:51;16.80;;;9.70;;
66886;SDS011;67239;51.680;5.976;2023-05-10T12:39:19;19.42;;;10.35;;
66886;SDS011;67239;51.680;5.976;2023-05-10T12:41:46;18.50;;;9.85;;
66886;SDS011;67239;51.680;5.976;2023-05-10T12:44:14;13.80;;;9.77;;
66886;SDS011;67239;51.680;5.976;2023-05-10T12:46:41;13.07;;;9.30;;
66886;SDS011;67239;51.680;5.976;2023-05-10T12:49:08;17.20;;;9.43;;
66886;SDS011;67239;51.680;5.976;2023-05-10T12:51:35;15.00;;;9.50;;
66886;SDS011;67239;51.680;5.976;2023-05-10T12:54:02;12.93;;;9.43;;
66886;SDS011;67239;51.680;5.976;2023-05-10T12:56:30;17.98;;;10.50;;
66886;SDS011;67239;51.680;5.976;2023-05-10T12:58:57;15.63;;;9.88;;
66886;SDS011;67239;51.680;5.976;2023-05-10T13:01:24;21.95;;;10.88;;
66886;SDS011;67239;51.680;5.976;2023-05-10T13:03:51;23.30;;;11.13;;
66886;SDS011;67239;51.680;5.976;2023-05-10T13:06:18;18.83;;;11.15;;
66886;SDS011;67239;51.680;5.976;2023-05-10T13:08:45;16.02;;;11.45;;
66886;SDS011;67239;51.680;5.976;2023-05-10T13:11:12;22.92;;;11.90;;
66886;SDS011;67239;51.680;5.976;2023-05-10T13:13:43;17.80;;;12.20;;
66886;SDS011;67239;51.680;5.976;2023-05-10T13:16:10;20.55;;;12.65;;
66886;SDS011;67239;51.680;5.976;2023-05-10T13:18:37;20.65;;;13.52;;
66886;SDS011;67239;51.680;5.976;2023-05-10T13:21:04;23.67;;;14.18;;
66886;SDS011;67239;51.680;5.976;2023-05-10T13:23:31;20.65;;;13.65;;
66886;SDS011;67239;51.680;5.976;2023-05-10T13:25:58;23.50;;;14.25;;
66886;SDS011;67239;51.680;5.976;2023-05-10T13:28:26;19.90;;;14.02;;
66886;SDS011;67239;51.680;5.976;2023-05-10T13:30:52;19.33;;;13.77;;
66886;SDS011;67239;51.680;5.976;2023-05-10T13:33:19;20.27;;;13.93;;
66886;SDS011;67239;51.680;5.976;2023-05-10T13:35:46;17.52;;;13.20;;
66886;SDS011;67239;51.680;5.976;2023-05-10T13:38:13;27.30;;;15.27;;
66886;SDS011;67239;51.680;5.976;2023-05-10T13:40:40;20.88;;;14.68;;
66886;SDS011;67239;51.680;5.976;2023-05-10T13:43:08;23.23;;;14.55;;
66886;SDS011;67239;51.680;5.976;2023-05-10T13:45:34;18.83;;;13.93;;
66886;SDS011;67239;51.680;5.976;2023-05-10T13:48:02;20.90;;;13.52;;
66886;SDS011;67239;51.680;5.976;2023-05-10T13:50:29;16.13;;;12.73;;
66886;SDS011;67239;51.680;5.976;2023-05-10T13:52:56;18.48;;;13.02;;
66886;SDS011;67239;51.680;5.976;2023-05-10T13:55:23;17.77;;;13.55;;
66886;SDS011;67239;51.680;5.976;2023-05-10T13:57:50;19.08;;;12.85;;
66886;SDS011;67239;51.680;5.976;2023-05-10T14:00:17;16.58;;;10.60;;
66886;SDS011;67239;51.680;5.976;2023-05-10T14:02:44;15.65;;;10.82;;
66886;SDS011;67239;51.680;5.976;2023-05-10T14:05:12;12.80;;;10.45;;
66886;SDS011;67239;51.680;5.976;2023-05-10T14:07:39;12.85;;;9.90;;
66886;SDS011;67239;51.680;5.976;2023-05-10T14:10:07;15.65;;;11.13;;
66886;SDS011;67239;51.680;5.976;2023-05-10T14:12:34;14.52;;;11.02;;
66886;SDS011;67239;51.680;5.976;2023-05-10T14:15:01;13.95;;;10.82;;
66886;SDS011;67239;51.680;5.976;2023-05-10T14:17:29;14.38;;;10.35;;
66886;SDS011;67239;51.680;5.976;2023-05-10T14:19:56;12.98;;;10.18;;
66886;SDS011;67239;51.680;5.976;2023-05-10T14:22:23;12.40;;;9.95;;
66886;SDS011;67239;51.680;5.976;2023-05-10T14:24:50;13.10;;;10.18;;
66886;SDS011;67239;51.680;5.976;2023-05-10T14:27:17;12.38;;;10.43;;
66886;SDS011;67239;51.680;5.976;2023-05-10T14:29:44;10.85;;;8.60;;
66886;SDS011;67239;51.680;5.976;2023-05-10T14:32:11;16.13;;;8.98;;
66886;SDS011;67239;51.680;5.976;2023-05-10T14:34:38;11.25;;;8.55;;
66886;SDS011;67239;51.680;5.976;2023-05-10T14:37:05;11.93;;;9.57;;
66886;SDS011;67239;51.680;5.976;2023-05-10T14:39:32;12.40;;;9.13;;
66886;SDS011;67239;51.680;5.976;2023-05-10T14:42:00;13.55;;;8.60;;
66886;SDS011;67239;51.680;5.976;2023-05-10T14:44:27;11.10;;;8.60;;
66886;SDS011;67239;51.680;5.976;2023-05-10T14:46:54;11.85;;;7.78;;
66886;SDS011;67239;51.680;5.976;2023-05-10T14:49:22;10.07;;;8.13;;
66886;SDS011;67239;51.680;5.976;2023-05-10T14:51:51;10.98;;;7.97;;
66886;SDS011;67239;51.680;5.976;2023-05-10T14:54:18;9.95;;;7.90;;
66886;SDS011;67239;51.680;5.976;2023-05-10T14:56:45;9.93;;;7.72;;
66886;SDS011;67239;51.680;5.976;2023-05-10T14:59:13;9.43;;;7.40;;
66886;SDS011;67239;51.680;5.976;2023-05-10T15:01:40;12.02;;;8.57;;
66886;SDS011;67239;51.680;5.976;2023-05-10T15:04:09;9.05;;;8.10;;